Hodges, Alabama
Current Conditions -  °F | °C
As of 3:56 PM on Sunday 23 Nov 2014 (Local Time) from K1M4 Reporting Station
Broken Clouds Broken Clouds  
Wind Chill: 62°   Ceiling: 2200
Heat Index: 62°   Visibility: 10mi
Dew Point: 61°   Wind: 13mph
Humidity: 97%   Direction: 170°S
Pressure: 29.49"   Gusts: 17mph
Location:  34.33°N, 87.93°W
Report Text: K1M4 232156Z AUTO 17011G15KT 10SM FEW011 SCT016 BKN022 17/16 A2949 RMK AO2 T01660161 BKN V SCT RAB2057E01B25E28 P0000 SLP003
Loading
Personal Weather Stations






























Interactive Weather Map New forecast layout! Learn more

10-Day Weather Forecast

Advertisements
Track Severe Weather on mobile